Loyal, Oklahoma
Current Conditions -  °F | °C
As of 3:15 AM on Monday 22 Dec 2014 (Local Time) from KJWG Reporting Station
Overcast Overcast  
Wind Chill: 44°   Ceiling: 1100
Heat Index: 48°   Visibility: 10mi
Dew Point: 48°   Wind: 7mph
Humidity: 100%   Direction: 190°S
Pressure: 29.56"   Gusts: NA
Location:  35.97°N, 98.12°W
Report Text: KJWG 220915Z AUTO 19006KT 10SM OVC011 09/09 A2956 RMK AO2 T00870087
Loading
Personal Weather Stations






























Interactive Weather Map New forecast layout! Learn more

10-Day Weather Forecast

Advertisements
Track Severe Weather on mobile